sensor_id;sensor_type;location;lat;lon;timestamp;pressure;altitude;pressure_sealevel;temperature;humidity
46007;BME280;31738;50.188;8.524;2023-02-18T00:00:06;99513.03;;;12.05;94.21
46007;BME280;31738;50.188;8.524;2023-02-18T00:02:32;99520.00;;;12.01;94.39
46007;BME280;31738;50.188;8.524;2023-02-18T00:04:58;99524.00;;;11.99;94.33
46007;BME280;31738;50.188;8.524;2023-02-18T00:07:27;99516.22;;;11.97;94.36
46007;BME280;31738;50.188;8.524;2023-02-18T00:10:03;99508.41;;;11.91;94.45
46007;BME280;31738;50.188;8.524;2023-02-18T00:12:29;99511.09;;;11.91;94.40
46007;BME280;31738;50.188;8.524;2023-02-18T00:14:55;99511.84;;;11.86;94.58
46007;BME280;31738;50.188;8.524;2023-02-18T00:17:21;99504.56;;;11.82;94.94
46007;BME280;31738;50.188;8.524;2023-02-18T00:19:49;99500.03;;;11.82;94.81
46007;BME280;31738;50.188;8.524;2023-02-18T00:25:01;99500.00;;;11.77;94.51
46007;BME280;31738;50.188;8.524;2023-02-18T00:27:27;99497.31;;;11.77;94.63
46007;BME280;31738;50.188;8.524;2023-02-18T00:29:53;99502.69;;;11.77;94.34
46007;BME280;31738;50.188;8.524;2023-02-18T00:32:24;99502.41;;;11.74;94.63
46007;BME280;31738;50.188;8.524;2023-02-18T00:34:52;99498.94;;;11.78;94.10
46007;BME280;31738;50.188;8.524;2023-02-18T00:37:18;99498.94;;;11.78;94.27
46007;BME280;31738;50.188;8.524;2023-02-18T00:39:44;99498.13;;;11.78;94.39
46007;BME280;31738;50.188;8.524;2023-02-18T00:42:16;99505.09;;;11.74;93.81
46007;BME280;31738;50.188;8.524;2023-02-18T00:44:41;99513.44;;;11.72;93.83
46007;BME280;31738;50.188;8.524;2023-02-18T00:47:07;99506.69;;;11.70;93.97
46007;BME280;31738;50.188;8.524;2023-02-18T00:49:32;99502.66;;;11.67;94.04
46007;BME280;31738;50.188;8.524;2023-02-18T00:51:58;99508.31;;;11.71;94.38
46007;BME280;31738;50.188;8.524;2023-02-18T00:54:23;99505.38;;;11.72;94.22
46007;BME280;31738;50.188;8.524;2023-02-18T00:56:49;99497.81;;;11.74;94.23
46007;BME280;31738;50.188;8.524;2023-02-18T00:59:15;99514.47;;;11.71;93.99
46007;BME280;31738;50.188;8.524;2023-02-18T01:01:42;99515.00;;;11.68;93.84
46007;BME280;31738;50.188;8.524;2023-02-18T01:04:46;99507.38;;;11.55;94.08
46007;BME280;31738;50.188;8.524;2023-02-18T01:07:12;99515.44;;;11.55;94.50
46007;BME280;31738;50.188;8.524;2023-02-18T01:09:38;99508.44;;;11.54;94.45
46007;BME280;31738;50.188;8.524;2023-02-18T01:12:06;99513.03;;;11.54;94.39
46007;BME280;31738;50.188;8.524;2023-02-18T01:14:31;99509.78;;;11.52;94.68
46007;BME280;31738;50.188;8.524;2023-02-18T01:16:57;99514.34;;;11.51;94.69
46007;BME280;31738;50.188;8.524;2023-02-18T01:19:22;99503.59;;;11.51;94.59
46007;BME280;31738;50.188;8.524;2023-02-18T01:25:10;99489.56;;;11.39;94.64
46007;BME280;31738;50.188;8.524;2023-02-18T01:27:36;99487.13;;;11.38;94.81
46007;BME280;31738;50.188;8.524;2023-02-18T01:30:04;99489.84;;;11.43;94.53
46007;BME280;31738;50.188;8.524;2023-02-18T01:32:30;99474.81;;;11.47;94.50
46007;BME280;31738;50.188;8.524;2023-02-18T01:34:56;99475.13;;;11.50;94.29
46007;BME280;31738;50.188;8.524;2023-02-18T01:37:21;99472.97;;;11.52;94.41
46007;BME280;31738;50.188;8.524;2023-02-18T01:39:47;99479.44;;;11.56;94.19
46007;BME280;31738;50.188;8.524;2023-02-18T01:42:17;99473.53;;;11.59;93.91
46007;BME280;31738;50.188;8.524;2023-02-18T01:44:45;99467.34;;;11.59;94.33
46007;BME280;31738;50.188;8.524;2023-02-18T01:47:11;99452.88;;;11.60;94.07
46007;BME280;31738;50.188;8.524;2023-02-18T01:49:37;99458.25;;;11.60;94.41
46007;BME280;31738;50.188;8.524;2023-02-18T01:52:18;99449.09;;;11.61;94.26
46007;BME280;31738;50.188;8.524;2023-02-18T01:54:51;99460.94;;;11.60;93.88
46007;BME280;31738;50.188;8.524;2023-02-18T01:57:23;99458.50;;;11.58;94.16
46007;BME280;31738;50.188;8.524;2023-02-18T02:00:09;99464.66;;;11.59;93.91
46007;BME280;31738;50.188;8.524;2023-02-18T02:02:44;99462.25;;;11.57;94.26
46007;BME280;31738;50.188;8.524;2023-02-18T02:05:10;99466.56;;;11.58;94.04
46007;BME280;31738;50.188;8.524;2023-02-18T02:07:38;99457.69;;;11.58;94.19
46007;BME280;31738;50.188;8.524;2023-02-18T02:10:06;99457.41;;;11.59;93.97
46007;BME280;31738;50.188;8.524;2023-02-18T02:33:13;99440.13;;;11.35;94.61
46007;BME280;31738;50.188;8.524;2023-02-18T02:35:51;99431.81;;;11.37;94.48
46007;BME280;31738;50.188;8.524;2023-02-18T02:38:34;99426.69;;;11.35;94.00
46007;BME280;31738;50.188;8.524;2023-02-18T02:41:17;99421.56;;;11.34;94.47
46007;BME280;31738;50.188;8.524;2023-02-18T02:46:46;99403.28;;;11.26;94.54
46007;BME280;31738;50.188;8.524;2023-02-18T02:49:27;99405.69;;;11.27;94.27
46007;BME280;31738;50.188;8.524;2023-02-18T02:52:17;99414.28;;;11.24;94.40
46007;BME280;31738;50.188;8.524;2023-02-18T02:54:44;99424.44;;;11.22;94.58
46007;BME280;31738;50.188;8.524;2023-02-18T02:59:59;99414.28;;;11.24;94.40
46007;BME280;31738;50.188;8.524;2023-02-18T03:16:36;99429.59;;;11.29;94.86
46007;BME280;31738;50.188;8.524;2023-02-18T03:21:41;99411.34;;;11.31;94.85
46007;BME280;31738;50.188;8.524;2023-02-18T03:24:13;99412.66;;;11.28;94.78
46007;BME280;31738;50.188;8.524;2023-02-18T03:26:46;99414.31;;;11.29;94.82
46007;BME280;31738;50.188;8.524;2023-02-18T03:29:17;99407.84;;;11.30;95.09
46007;BME280;31738;50.188;8.524;2023-02-18T03:31:46;99410.53;;;11.30;95.17
46007;BME280;31738;50.188;8.524;2023-02-18T03:34:19;99414.31;;;11.29;95.09
46007;BME280;31738;50.188;8.524;2023-02-18T03:36:47;99425.06;;;11.29;95.26
46007;BME280;31738;50.188;8.524;2023-02-18T03:39:16;99420.19;;;11.31;95.19
46007;BME280;31738;50.188;8.524;2023-02-18T03:41:42;99414.84;;;11.31;95.40
46007;BME280;31738;50.188;8.524;2023-02-18T03:44:10;99417.00;;;11.34;95.54
46007;BME280;31738;50.188;8.524;2023-02-18T03:46:38;99422.38;;;11.34;95.48
46007;BME280;31738;50.188;8.524;2023-02-18T03:49:04;99422.38;;;11.34;95.38
46007;BME280;31738;50.188;8.524;2023-02-18T03:51:36;99401.97;;;11.33;95.64
46007;BME280;31738;50.188;8.524;2023-02-18T03:57:56;99407.81;;;11.25;95.34
46007;BME280;31738;50.188;8.524;2023-02-18T04:00:21;99394.94;;;11.27;95.75
46007;BME280;31738;50.188;8.524;2023-02-18T04:02:47;99404.34;;;11.30;95.71
46007;BME280;31738;50.188;8.524;2023-02-18T04:05:18;99393.59;;;11.30;95.66
46007;BME280;31738;50.188;8.524;2023-02-18T04:07:43;99396.03;;;11.31;95.84
46007;BME280;31738;50.188;8.524;2023-02-18T04:10:09;99393.91;;;11.33;95.51
46007;BME280;31738;50.188;8.524;2023-02-18T04:12:35;99399.28;;;11.33;95.60
46007;BME280;31738;50.188;8.524;2023-02-18T04:15:01;99399.00;;;11.35;95.62
46007;BME280;31738;50.188;8.524;2023-02-18T04:17:26;99397.97;;;11.36;95.81
46007;BME280;31738;50.188;8.524;2023-02-18T04:19:52;99394.47;;;11.35;96.04
46007;BME280;31738;50.188;8.524;2023-02-18T04:22:17;99391.78;;;11.35;95.89
46007;BME280;31738;50.188;8.524;2023-02-18T04:24:43;99397.16;;;11.35;95.50
46007;BME280;31738;50.188;8.524;2023-02-18T04:27:08;99402.50;;;11.35;96.06
46007;BME280;31738;50.188;8.524;2023-02-18T04:29:34;99400.88;;;11.34;95.94
46007;BME280;31738;50.188;8.524;2023-02-18T04:31:59;99397.16;;;11.35;96.03
46007;BME280;31738;50.188;8.524;2023-02-18T04:34:25;99391.78;;;11.35;96.24
46007;BME280;31738;50.188;8.524;2023-02-18T04:36:50;99384.53;;;11.36;96.34
46007;BME280;31738;50.188;8.524;2023-02-18T04:39:16;99387.22;;;11.36;96.26
46007;BME280;31738;50.188;8.524;2023-02-18T04:41:42;99393.38;;;11.36;96.27
46007;BME280;31738;50.188;8.524;2023-02-18T04:44:07;99379.41;;;11.34;96.50
46007;BME280;31738;50.188;8.524;2023-02-18T04:46:33;99375.66;;;11.35;96.63
46007;BME280;31738;50.188;8.524;2023-02-18T04:48:58;99370.28;;;11.35;96.51
46007;BME280;31738;50.188;8.524;2023-02-18T04:51:24;99377.25;;;11.36;96.32
46007;BME280;31738;50.188;8.524;2023-02-18T04:57:07;99369.69;;;11.28;96.44
46007;BME280;31738;50.188;8.524;2023-02-18T04:59:33;99356.81;;;11.30;96.83
46007;BME280;31738;50.188;8.524;2023-02-18T05:02:12;99360.06;;;11.32;96.83
46007;BME280;31738;50.188;8.524;2023-02-18T05:05:02;99349.84;;;11.29;96.79
46007;BME280;31738;50.188;8.524;2023-02-18T05:07:28;99356.28;;;11.28;96.64
46007;BME280;31738;50.188;8.524;2023-02-18T05:09:53;99356.81;;;11.30;96.91
46007;BME280;31738;50.188;8.524;2023-02-18T05:12:19;99347.69;;;11.31;96.82
46007;BME280;31738;50.188;8.524;2023-02-18T05:15:15;99353.06;;;11.31;96.80
46007;BME280;31738;50.188;8.524;2023-02-18T05:17:40;99356.53;;;11.27;97.34
46007;BME280;31738;50.188;8.524;2023-02-18T05:20:06;99345.53;;;11.28;97.43
46007;BME280;31738;50.188;8.524;2023-02-18T05:22:32;99340.16;;;11.28;97.12
46007;BME280;31738;50.188;8.524;2023-02-18T05:24:57;99342.84;;;11.28;97.30
46007;BME280;31738;50.188;8.524;2023-02-18T05:27:23;99329.69;;;11.27;97.19
46007;BME280;31738;50.188;8.524;2023-02-18T05:29:48;99321.63;;;11.27;97.52
46007;BME280;31738;50.188;8.524;2023-02-18T05:32:14;99319.75;;;11.27;97.59
46007;BME280;31738;50.188;8.524;2023-02-18T05:34:39;99313.56;;;11.27;97.36
46007;BME280;31738;50.188;8.524;2023-02-18T05:37:05;99326.22;;;11.26;97.70
46007;BME280;31738;50.188;8.524;2023-02-18T05:39:30;99317.34;;;11.26;97.64
46007;BME280;31738;50.188;8.524;2023-02-18T05:41:56;99307.94;;;11.23;98.01
46007;BME280;31738;50.188;8.524;2023-02-18T05:44:21;99304.16;;;11.24;98.05
46007;BME280;31738;50.188;8.524;2023-02-18T05:47:01;99296.13;;;11.24;98.07
46007;BME280;31738;50.188;8.524;2023-02-18T05:49:28;99290.75;;;11.24;98.14
46007;BME280;31738;50.188;8.524;2023-02-18T05:51:54;99288.06;;;11.24;97.89
46007;BME280;31738;50.188;8.524;2023-02-18T05:54:43;99287.25;;;11.24;97.95
46007;BME280;31738;50.188;8.524;2023-02-18T05:57:41;99290.72;;;11.19;98.10
46007;BME280;31738;50.188;8.524;2023-02-18T06:00:07;99276.78;;;11.17;98.42
46007;BME280;31738;50.188;8.524;2023-02-18T06:02:36;99279.97;;;11.19;98.16
46007;BME280;31738;50.188;8.524;2023-02-18T06:05:02;99262.81;;;11.20;98.60
46007;BME280;31738;50.188;8.524;2023-02-18T06:07:35;99267.09;;;11.21;98.33
46007;BME280;31738;50.188;8.524;2023-02-18T06:10:01;99267.66;;;11.23;98.23
46007;BME280;31738;50.188;8.524;2023-02-18T06:12:32;99267.66;;;11.23;98.55
46007;BME280;31738;50.188;8.524;2023-02-18T06:14:57;99271.94;;;11.24;98.07
46007;BME280;31738;50.188;8.524;2023-02-18T06:17:23;99271.94;;;11.24;98.84
46007;BME280;31738;50.188;8.524;2023-02-18T06:19:48;99275.72;;;11.23;98.41
46007;BME280;31738;50.188;8.524;2023-02-18T06:22:14;99277.31;;;11.24;98.67
46007;BME280;31738;50.188;8.524;2023-02-18T06:24:40;99262.03;;;11.25;98.73
46007;BME280;31738;50.188;8.524;2023-02-18T06:27:05;99257.69;;;11.24;98.94
46007;BME280;31738;50.188;8.524;2023-02-18T06:29:31;99259.34;;;11.25;98.85
46007;BME280;31738;50.188;8.524;2023-02-18T06:31:57;99263.63;;;11.26;98.65
46007;BME280;31738;50.188;8.524;2023-02-18T06:34:23;99267.13;;;11.26;98.94
46007;BME280;31738;50.188;8.524;2023-02-18T06:36:49;99276.78;;;11.27;98.80
46007;BME280;31738;50.188;8.524;2023-02-18T06:39:14;99276.78;;;11.27;99.20
46007;BME280;31738;50.188;8.524;2023-02-18T06:41:40;99283.75;;;11.28;99.07
46007;BME280;31738;50.188;8.524;2023-02-18T06:44:06;99274.09;;;11.27;99.04
46007;BME280;31738;50.188;8.524;2023-02-18T06:46:32;99274.09;;;11.27;98.96
46007;BME280;31738;50.188;8.524;2023-02-18T06:48:57;99273.03;;;11.28;98.64
46007;BME280;31738;50.188;8.524;2023-02-18T06:51:23;99268.72;;;11.27;98.70
46007;BME280;31738;50.188;8.524;2023-02-18T06:53:49;99271.41;;;11.27;98.98
46007;BME280;31738;50.188;8.524;2023-02-18T06:56:15;99266.03;;;11.27;98.53
46007;BME280;31738;50.188;8.524;2023-02-18T06:58:41;99265.22;;;11.27;98.55
46007;BME280;31738;50.188;8.524;2023-02-18T07:01:06;99271.41;;;11.27;98.38
46007;BME280;31738;50.188;8.524;2023-02-18T07:03:32;99261.22;;;11.24;98.28
46007;BME280;31738;50.188;8.524;2023-02-18T07:05:57;99261.22;;;11.24;98.43
46007;BME280;31738;50.188;8.524;2023-02-18T07:08:23;99262.28;;;11.23;98.48
46007;BME280;31738;50.188;8.524;2023-02-18T07:10:48;99271.94;;;11.24;98.15
46007;BME280;31738;50.188;8.524;2023-02-18T07:13:14;99265.50;;;11.25;98.07
46007;BME280;31738;50.188;8.524;2023-02-18T07:15:40;99269.25;;;11.24;98.13
46007;BME280;31738;50.188;8.524;2023-02-18T07:18:05;99257.44;;;11.25;97.86
46007;BME280;31738;50.188;8.524;2023-02-18T07:21:11;99259.59;;;11.23;97.33
46007;BME280;31738;50.188;8.524;2023-02-18T07:23:37;99263.88;;;11.19;98.00
46007;BME280;31738;50.188;8.524;2023-02-18T07:26:11;99275.97;;;11.22;97.61
46007;BME280;31738;50.188;8.524;2023-02-18T07:28:37;99277.03;;;11.21;97.44
46007;BME280;31738;50.188;8.524;2023-02-18T07:31:02;99280.78;;;11.20;97.16
46007;BME280;31738;50.188;8.524;2023-02-18T07:33:28;99283.22;;;11.21;97.36
46007;BME280;31738;50.188;8.524;2023-02-18T07:35:54;99280.53;;;11.21;97.10
46007;BME280;31738;50.188;8.524;2023-02-18T07:38:27;99282.13;;;11.22;96.85
46007;BME280;31738;50.188;8.524;2023-02-18T07:40:53;99269.78;;;11.21;96.83
46007;BME280;31738;50.188;8.524;2023-02-18T07:43:19;99269.53;;;11.23;96.65
46007;BME280;31738;50.188;8.524;2023-02-18T07:45:45;99270.34;;;11.23;96.16
46007;BME280;31738;50.188;8.524;2023-02-18T07:48:11;99273.03;;;11.23;96.26
46007;BME280;31738;50.188;8.524;2023-02-18T07:50:41;99276.75;;;11.22;95.71
46007;BME280;31738;50.188;8.524;2023-02-18T07:53:08;99273.28;;;11.22;95.65
46007;BME280;31738;50.188;8.524;2023-02-18T07:55:35;99275.97;;;11.22;95.41
46007;BME280;31738;50.188;8.524;2023-02-18T07:58:39;99275.44;;;11.20;95.14
46007;BME280;31738;50.188;8.524;2023-02-18T08:01:11;99269.75;;;11.16;95.19
46007;BME280;31738;50.188;8.524;2023-02-18T08:03:39;99275.13;;;11.16;95.13
46007;BME280;31738;50.188;8.524;2023-02-18T08:06:05;99256.06;;;11.18;94.72
46007;BME280;31738;50.188;8.524;2023-02-18T08:08:42;99255.28;;;11.17;94.82
46007;BME280;31738;50.188;8.524;2023-02-18T08:11:08;99265.47;;;11.15;94.56
46007;BME280;31738;50.188;8.524;2023-02-18T08:13:33;99272.72;;;11.15;94.14
46007;BME280;31738;50.188;8.524;2023-02-18T08:15:59;99279.97;;;11.14;93.87
46007;BME280;31738;50.188;8.524;2023-02-18T08:18:25;99280.78;;;11.15;93.75
46007;BME280;31738;50.188;8.524;2023-02-18T08:20:51;99278.91;;;11.15;93.26
46007;BME280;31738;50.188;8.524;2023-02-18T08:23:21;99289.63;;;11.15;92.98
46007;BME280;31738;50.188;8.524;2023-02-18T08:25:48;99302.53;;;11.18;92.93
46007;BME280;31738;50.188;8.524;2023-02-18T08:28:15;99303.09;;;11.20;92.59
46007;BME280;31738;50.188;8.524;2023-02-18T08:30:51;99310.06;;;11.21;91.99
46007;BME280;31738;50.188;8.524;2023-02-18T08:33:21;99339.34;;;11.23;91.12
46007;BME280;31738;50.188;8.524;2023-02-18T08:35:48;99331.84;;;11.25;91.07
46007;BME280;31738;50.188;8.524;2023-02-18T08:38:14;99332.38;;;11.27;90.31
46007;BME280;31738;50.188;8.524;2023-02-18T08:40:39;99342.84;;;11.28;90.16
46007;BME280;31738;50.188;8.524;2023-02-18T08:46:03;99361.38;;;11.30;89.39
46007;BME280;31738;50.188;8.524;2023-02-18T08:48:39;99363.53;;;11.33;89.02
46007;BME280;31738;50.188;8.524;2023-02-18T08:51:17;99367.03;;;11.33;88.41
46007;BME280;31738;50.188;8.524;2023-02-18T08:53:49;99354.16;;;11.35;87.62
46007;BME280;31738;50.188;8.524;2023-02-18T08:56:15;99383.44;;;11.37;87.59
46007;BME280;31738;50.188;8.524;2023-02-18T08:58:45;99366.00;;;11.39;87.76
46007;BME280;31738;50.188;8.524;2023-02-18T09:05:41;99374.03;;;11.34;87.80
46007;BME280;31738;50.188;8.524;2023-02-18T09:08:52;99382.59;;;11.26;87.31
46007;BME280;31738;50.188;8.524;2023-02-18T09:16:00;99372.66;;;11.22;87.53
46007;BME280;31738;50.188;8.524;2023-02-18T09:18:25;99368.06;;;11.22;87.41
46007;BME280;31738;50.188;8.524;2023-02-18T09:20:55;99375.34;;;11.27;87.16
46007;BME280;31738;50.188;8.524;2023-02-18T09:23:20;99370.81;;;11.32;87.13
46007;BME280;31738;50.188;8.524;2023-02-18T09:25:46;99383.44;;;11.37;85.88
46007;BME280;31738;50.188;8.524;2023-02-18T09:28:26;99376.22;;;11.42;86.12
46007;BME280;31738;50.188;8.524;2023-02-18T09:31:48;99366.53;;;11.36;85.81
46007;BME280;31738;50.188;8.524;2023-02-18T09:34:13;99352.03;;;11.42;85.93
46007;BME280;31738;50.188;8.524;2023-02-18T09:36:39;99352.06;;;11.47;86.16
46007;BME280;31738;50.188;8.524;2023-02-18T09:39:05;99355.31;;;11.49;85.04
46007;BME280;31738;50.188;8.524;2023-02-18T09:41:52;99366.84;;;11.55;84.89
46007;BME280;31738;50.188;8.524;2023-02-18T09:44:23;99376.78;;;11.54;84.74
46007;BME280;31738;50.188;8.524;2023-02-18T09:49:31;99398.03;;;11.61;84.45
46007;BME280;31738;50.188;8.524;2023-02-18T09:52:12;99384.94;;;11.64;83.91
46007;BME280;31738;50.188;8.524;2023-02-18T09:54:38;99381.69;;;11.62;84.21
46007;BME280;31738;50.188;8.524;2023-02-18T09:57:04;99402.13;;;11.63;83.77
46007;BME280;31738;50.188;8.524;2023-02-18T09:59:30;99401.88;;;11.65;83.36
46007;BME280;31738;50.188;8.524;2023-02-18T10:01:57;99408.03;;;11.65;82.83
46007;BME280;31738;50.188;8.524;2023-02-18T10:04:28;99398.91;;;11.66;82.72
46007;BME280;31738;50.188;8.524;2023-02-18T10:06:57;99394.63;;;11.70;83.12
46007;BME280;31738;50.188;8.524;2023-02-18T10:09:30;99394.09;;;11.73;83.00
46007;BME280;31738;50.188;8.524;2023-02-18T10:12:10;99384.69;;;11.76;82.17
46007;BME280;31738;50.188;8.524;2023-02-18T10:14:37;99386.59;;;11.75;82.88
46007;BME280;31738;50.188;8.524;2023-02-18T10:17:03;99383.38;;;11.78;82.34
46007;BME280;31738;50.188;8.524;2023-02-18T10:19:37;99376.38;;;11.82;81.49
46007;BME280;31738;50.188;8.524;2023-02-18T10:22:07;99390.63;;;11.83;81.40
46007;BME280;31738;50.188;8.524;2023-02-18T10:27:03;99391.19;;;11.95;81.02
46007;BME280;31738;50.188;8.524;2023-02-18T10:29:29;99381.50;;;11.99;80.85
46007;BME280;31738;50.188;8.524;2023-02-18T10:32:35;99394.16;;;12.03;80.75
46007;BME280;31738;50.188;8.524;2023-02-18T10:38:00;99392.25;;;11.99;80.58
46007;BME280;31738;50.188;8.524;2023-02-18T10:43:42;99398.47;;;11.99;80.99
46007;BME280;31738;50.188;8.524;2023-02-18T10:46:21;99401.16;;;11.99;81.57
46007;BME280;31738;50.188;8.524;2023-02-18T10:49:09;99393.09;;;11.99;81.25
46007;BME280;31738;50.188;8.524;2023-02-18T10:51:46;99393.88;;;11.95;81.14
46007;BME280;31738;50.188;8.524;2023-02-18T10:54:13;99394.69;;;11.95;81.84
46007;BME280;31738;50.188;8.524;2023-02-18T10:56:41;99391.22;;;12.00;81.52
46007;BME280;31738;50.188;8.524;2023-02-18T10:59:21;99389.31;;;12.00;81.90
46007;BME280;31738;50.188;8.524;2023-02-18T11:01:56;99386.34;;;12.02;81.82
46007;BME280;31738;50.188;8.524;2023-02-18T11:04:25;99382.06;;;11.91;80.86
46007;BME280;31738;50.188;8.524;2023-02-18T11:06:51;99382.03;;;11.86;81.97
46007;BME280;31738;50.188;8.524;2023-02-18T11:09:39;99385.53;;;11.91;81.78
46007;BME280;31738;50.188;8.524;2023-02-18T11:12:48;99369.41;;;11.91;81.79
46007;BME280;31738;50.188;8.524;2023-02-18T11:17:50;99371.03;;;12.02;81.38
46007;BME280;31738;50.188;8.524;2023-02-18T11:20:32;99364.56;;;12.03;81.06
46007;BME280;31738;50.188;8.524;2023-02-18T11:25:34;99359.25;;;12.19;80.83
46007;BME280;31738;50.188;8.524;2023-02-18T11:28:05;99353.06;;;12.23;80.72
46007;BME280;31738;50.188;8.524;2023-02-18T11:30:37;99351.41;;;12.22;79.52
46007;BME280;31738;50.188;8.524;2023-02-18T11:35:57;99362.72;;;12.19;80.22
46007;BME280;31738;50.188;8.524;2023-02-18T11:38:59;99352.50;;;12.21;80.02
46007;BME280;31738;50.188;8.524;2023-02-18T11:41:52;99364.63;;;12.19;79.55
46007;BME280;31738;50.188;8.524;2023-02-18T11:44:27;99366.22;;;12.15;79.46
46007;BME280;31738;50.188;8.524;2023-02-18T11:49:38;99354.91;;;11.92;80.13
46007;BME280;31738;50.188;8.524;2023-02-18T11:52:37;99351.66;;;12.00;79.47
46007;BME280;31738;50.188;8.524;2023-02-18T11:55:07;99351.13;;;11.93;79.49
46007;BME280;31738;50.188;8.524;2023-02-18T11:57:35;99348.47;;;11.98;79.20
46007;BME280;31738;50.188;8.524;2023-02-18T12:00:04;99344.69;;;11.99;79.10
46007;BME280;31738;50.188;8.524;2023-02-18T12:05:26;99350.06;;;11.99;79.11
46007;BME280;31738;50.188;8.524;2023-02-18T12:07:59;99337.41;;;12.05;78.77
46007;BME280;31738;50.188;8.524;2023-02-18T12:10:39;99337.69;;;12.08;78.87
46007;BME280;31738;50.188;8.524;2023-02-18T12:20:39;99342.81;;;12.10;78.95
46007;BME280;31738;50.188;8.524;2023-02-18T12:27:40;99347.94;;;12.01;79.36
46007;BME280;31738;50.188;8.524;2023-02-18T12:36:28;99356.78;;;12.07;79.25
46007;BME280;31738;50.188;8.524;2023-02-18T12:45:45;99346.84;;;12.02;79.46
46007;BME280;31738;50.188;8.524;2023-02-18T12:48:37;99340.66;;;12.07;79.96
46007;BME280;31738;50.188;8.524;2023-02-18T13:00:46;99326.38;;;11.91;82.29
46007;BME280;31738;50.188;8.524;2023-02-18T13:14:15;99310.78;;;11.88;84.55
46007;BME280;31738;50.188;8.524;2023-02-18T13:16:46;99300.03;;;11.88;84.90
46007;BME280;31738;50.188;8.524;2023-02-18T13:19:21;99290.09;;;11.89;85.26
46007;BME280;31738;50.188;8.524;2023-02-18T13:21:50;99285.00;;;11.92;85.67
46007;BME280;31738;50.188;8.524;2023-02-18T13:24:27;99284.19;;;11.92;85.67
46007;BME280;31738;50.188;8.524;2023-02-18T13:34:26;99274.25;;;11.92;86.01
46007;BME280;31738;50.188;8.524;2023-02-18T13:37:06;99274.22;;;11.97;85.64
46007;BME280;31738;50.188;8.524;2023-02-18T13:39:35;99267.81;;;11.98;85.58
46007;BME280;31738;50.188;8.524;2023-02-18T13:47:46;99273.19;;;11.98;85.79
46007;BME280;31738;50.188;8.524;2023-02-18T13:50:29;99272.38;;;11.98;85.89
46007;BME280;31738;50.188;8.524;2023-02-18T13:53:12;99270.75;;;11.97;86.45
46007;BME280;31738;50.188;8.524;2023-02-18T13:55:57;99266.19;;;11.92;86.56
46007;BME280;31738;50.188;8.524;2023-02-18T13:58:56;99265.09;;;11.88;87.13
46007;BME280;31738;50.188;8.524;2023-02-18T14:02:35;99264.56;;;11.76;87.51
46007;BME280;31738;50.188;8.524;2023-02-18T14:10:03;99247.34;;;11.77;88.90
46007;BME280;31738;50.188;8.524;2023-02-18T14:33:49;99222.91;;;11.69;90.02
46007;BME280;31738;50.188;8.524;2023-02-18T14:36:35;99224.47;;;11.55;90.11
46007;BME280;31738;50.188;8.524;2023-02-18T14:39:42;99219.91;;;11.55;90.42
46007;BME280;31738;50.188;8.524;2023-02-18T14:42:21;99220.44;;;11.57;90.75
46007;BME280;31738;50.188;8.524;2023-02-18T14:45:18;99210.22;;;11.59;90.61
46007;BME280;31738;50.188;8.524;2023-02-18T14:48:13;99212.38;;;11.57;90.47
46007;BME280;31738;50.188;8.524;2023-02-18T14:50:47;99212.91;;;11.59;90.66
46007;BME280;31738;50.188;8.524;2023-02-18T14:53:17;99214.03;;;11.63;90.35
46007;BME280;31738;50.188;8.524;2023-02-18T14:55:46;99204.09;;;11.64;90.45
46007;BME280;31738;50.188;8.524;2023-02-18T14:58:32;99208.41;;;11.65;90.33
46007;BME280;31738;50.188;8.524;2023-02-18T15:01:25;99205.44;;;11.66;90.05
46007;BME280;31738;50.188;8.524;2023-02-18T15:04:19;99203.25;;;11.53;90.33
46007;BME280;31738;50.188;8.524;2023-02-18T15:06:44;99213.97;;;11.48;90.37
46007;BME280;31738;50.188;8.524;2023-02-18T15:09:17;99211.84;;;11.55;90.34
46007;BME280;31738;50.188;8.524;2023-02-18T15:11:47;99206.47;;;11.60;90.46
46007;BME280;31738;50.188;8.524;2023-02-18T15:14:40;99214.56;;;11.65;90.01
46007;BME280;31738;50.188;8.524;2023-02-18T15:17:12;99205.44;;;11.66;90.35
46007;BME280;31738;50.188;8.524;2023-02-18T15:19:43;99212.41;;;11.67;90.11
46007;BME280;31738;50.188;8.524;2023-02-18T15:22:17;99215.66;;;11.69;89.94
46007;BME280;31738;50.188;8.524;2023-02-18T15:24:43;99220.75;;;11.71;89.41
46007;BME280;31738;50.188;8.524;2023-02-18T15:27:22;99221.53;;;11.71;89.45
46007;BME280;31738;50.188;8.524;2023-02-18T15:33:24;99229.34;;;11.68;89.23
46007;BME280;31738;50.188;8.524;2023-02-18T15:35:50;99232.28;;;11.71;89.05
46007;BME280;31738;50.188;8.524;2023-02-18T15:38:17;99227.47;;;11.73;88.85
46007;BME280;31738;50.188;8.524;2023-02-18T15:40:47;99227.47;;;11.73;88.53
46007;BME280;31738;50.188;8.524;2023-02-18T15:43:18;99236.63;;;11.72;88.51
46007;BME280;31738;50.188;8.524;2023-02-18T15:49:51;99236.06;;;11.65;88.13
46007;BME280;31738;50.188;8.524;2023-02-18T15:55:05;99237.16;;;11.69;87.97
46007;BME280;31738;50.188;8.524;2023-02-18T15:57:33;99229.59;;;11.71;87.75
46007;BME280;31738;50.188;8.524;2023-02-18T16:03:45;99255.69;;;11.66;87.72
46007;BME280;31738;50.188;8.524;2023-02-18T16:06:21;99239.00;;;11.64;87.59
46007;BME280;31738;50.188;8.524;2023-02-18T16:11:34;99241.44;;;11.65;87.26
46007;BME280;31738;50.188;8.524;2023-02-18T16:14:06;99256.75;;;11.65;86.90
46007;BME280;31738;50.188;8.524;2023-02-18T16:16:36;99250.03;;;11.67;86.95
46007;BME280;31738;50.188;8.524;2023-02-18T16:19:04;99251.13;;;11.66;87.14
46007;BME280;31738;50.188;8.524;2023-02-18T16:21:39;99258.66;;;11.69;86.80
46007;BME280;31738;50.188;8.524;2023-02-18T16:24:40;99258.09;;;11.67;86.34
46007;BME280;31738;50.188;8.524;2023-02-18T16:27:14;99268.31;;;11.65;86.80
46007;BME280;31738;50.188;8.524;2023-02-18T16:29:43;99276.91;;;11.67;86.40
46007;BME280;31738;50.188;8.524;2023-02-18T16:32:09;99271.53;;;11.67;87.02
46007;BME280;31738;50.188;8.524;2023-02-18T16:34:35;99275.81;;;11.68;86.73
46007;BME280;31738;50.188;8.524;2023-02-18T16:37:01;99273.13;;;11.68;86.63